Αρχική σελίδα
METAR-TAF:

METAR-TAF

Αεροδρόμια :

Porto Alegre, Ρίο Γκράντε ντο Σουλ, Βραζιλία

γεωγραφικό πλάτος: 30-01S, γεωγραφικό μήκος: 051-13W, υψόμετρο: 47 μ

Παρών καιρός

Η αναφορά έγινε 1 ώρα και 7 λεπτά πριν, στις 07:00 UTC
Ήπιος άνεμος
Θερμοκρασία 11°C
Υγρασία 100%
Πίεση 1023 hPa
Ορατότητα: 0100 μ
ομίχλη,

METAR: SBCO 190700Z 00000KT 0100 R31/0325 R13/0350 FG VV001 11/11 Q1023

Χρόνος: 05:07 (08:07 UTC)

Πρόγνωση Καιρού

Η αναφορά έγινε 5 ώρες και 7 λεπτά πριν, στις 03:00 UTC
Η πρόγνωση ισχύει από τις 19 στις 06 UTC έως τις 19 στις 18 UTC
Άνεμος 5 kt από Α/NA
Ορατότητα: 9000 μ
Λίγα νέφη σε ύψος 1500 πόδια
Πιθανότητα 30%
από 19 στις 12 UTC έως τις 19 στις 14 UTC
Ορατότητα: 0900 μ
Νεφοσκεπής σε ύψος 200 πόδια
ομίχλη

TAF: SBCO 190300Z 1906/1918 11005KT 9000 FEW015 TN13/1909Z TX20/1918Z PROB30 1912/1914 0900 FG OVC002 RMK PBH

Μετεωρολογικές αναφορές και προγνώσεις για περισσότερα από 4000 αεροδρόμια (δελτία METAR και TAF).

Οι διαθέσιμοι σταθμοί απεικονίζονται στο χάρτη με κίτρινες και κόκκινες κουκκίδες.

Μετακινήστε το ποντίκι πάνω από τις κουκκίδες για να δείτε το όνομα του σταθμού.

Στη συνέχεια, κάντε κλικ για να δείτε τις μετεωρολογικές αναφορές και τις προγνώσεις καιρού.

Για να αλλάξετε το χάρτη: κάντε κλικ στα πράσινα κουμπιά με τον μαύρο σταυρό για να ζουμάρετε, στο πράσινο κουμπί με την παύλα για να αφαιρέσετε το ζουμ ή στα πράσινα βέλη για να αντιπαραβάλλετε χάρτες.


METAR-TAF: